Time;durP1;ratioP1;P1;durP2;ratioP2;P2;SDS_P1;SDS_P2;PMS_P1;PMS_P2;Temp;Humidity;BMP_temperature;BMP_pressure;BME280_temperature;BME280_humidity;BME280_pressure;Samples;Min_cycle;Max_cycle;Signal;HPM_P1;HPM_P2
2023/03/27 00:00:46;;;;;;;11.10;2.73;;;3.60;99.90;;;;;;4990167;28;20935;-78
2023/03/27 00:03:14;;;;;;;13.15;2.33;;;3.60;99.90;;;;;;5005880;28;20945;-79
2023/03/27 00:05:40;;;;;;;12.02;2.45;;;3.70;99.90;;;;;;5008180;28;20444;-80
2023/03/27 00:08:10;;;;;;;10.80;2.40;;;3.60;99.90;;;;;;5006925;28;20464;-79
2023/03/27 00:10:37;;;;;;;10.98;2.17;;;3.60;99.90;;;;;;5008139;28;20854;-79
2023/03/27 00:13:05;;;;;;;13.02;2.70;;;3.60;99.90;;;;;;4988814;28;20515;-79
2023/03/27 00:15:33;;;;;;;7.53;1.45;;;3.50;99.90;;;;;;5006005;28;20839;-80
2023/03/27 00:18:02;;;;;;;9.83;1.67;;;3.60;99.90;;;;;;5006325;28;20520;-78
2023/03/27 00:20:30;;;;;;;9.20;1.70;;;3.60;99.90;;;;;;5007648;28;20429;-80
2023/03/27 00:22:57;;;;;;;14.20;2.17;;;3.60;99.90;;;;;;5006295;28;20436;-78
2023/03/27 00:25:25;;;;;;;5.33;1.10;;;3.50;99.90;;;;;;5005731;28;20490;-79
2023/03/27 00:27:52;;;;;;;6.78;1.30;;;3.50;99.90;;;;;;5008370;28;20795;-79
2023/03/27 00:30:19;;;;;;;10.45;1.52;;;3.50;99.90;;;;;;5006719;28;20443;-76
2023/03/27 00:32:45;;;;;;;9.45;1.65;;;3.50;99.90;;;;;;5000822;28;20431;-77
2023/03/27 00:35:13;;;;;;;8.07;1.40;;;3.50;99.90;;;;;;5004226;28;20463;-77
2023/03/27 00:37:39;;;;;;;8.85;2.00;;;3.50;99.90;;;;;;5006016;28;20942;-79
2023/03/27 00:40:14;;;;;;;12.77;1.55;;;3.50;99.90;;;;;;5008112;28;20472;-78
2023/03/27 00:42:40;;;;;;;5.40;1.50;;;3.50;99.90;;;;;;5007202;28;20463;-77
2023/03/27 00:45:14;;;;;;;11.02;1.50;;;3.50;99.90;;;;;;5006771;28;20462;-77
2023/03/27 00:47:40;;;;;;;14.63;1.88;;;3.50;99.90;;;;;;5008059;28;20471;-77
2023/03/27 00:50:11;;;;;;;10.17;1.40;;;3.60;99.90;;;;;;4987958;28;20833;-81
2023/03/27 00:52:40;;;;;;;9.30;1.60;;;3.40;99.90;;;;;;5007724;28;20428;-78
2023/03/27 00:55:13;;;;;;;9.25;1.52;;;3.30;99.90;;;;;;5007056;28;20439;-77
2023/03/27 00:57:42;;;;;;;10.82;1.95;;;3.40;99.90;;;;;;4994695;28;20516;-78
2023/03/27 01:00:12;;;;;;;7.03;1.63;;;3.30;99.90;;;;;;5006165;28;20767;-76
2023/03/27 01:02:40;;;;;;;10.15;1.77;;;3.30;99.90;;;;;;5007927;28;20563;-77
2023/03/27 01:05:08;;;;;;;10.45;2.00;;;3.20;99.90;;;;;;5002545;28;20428;-79
2023/03/27 01:07:35;;;;;;;8.27;1.88;;;3.20;99.90;;;;;;5005876;28;20878;-76
2023/03/27 01:10:03;;;;;;;11.07;1.88;;;3.20;99.90;;;;;;5006333;28;20931;-77
2023/03/27 01:12:44;;;;;;;11.00;1.92;;;3.20;99.90;;;;;;5005850;28;20437;-78
2023/03/27 01:15:35;;;;;;;10.00;1.67;;;3.20;99.90;;;;;;4985323;28;20826;-76
2023/03/27 01:18:12;;;;;;;12.85;2.03;;;3.10;99.90;;;;;;5004720;28;20424;-79
2023/03/27 01:21:10;;;;;;;12.90;2.55;;;3.10;99.90;;;;;;5005084;28;20433;-77
2023/03/27 01:23:57;;;;;;;9.35;2.63;;;3.10;99.90;;;;;;5000194;28;20783;-77
2023/03/27 01:26:33;;;;;;;7.10;1.52;;;3.00;99.90;;;;;;5006725;28;20421;-77
2023/03/27 01:29:14;;;;;;;17.70;2.50;;;3.00;99.90;;;;;;5006095;28;20429;-78
2023/03/27 01:31:46;;;;;;;9.00;1.60;;;3.00;99.90;;;;;;5010954;28;20425;-77
2023/03/27 01:35:01;;;;;;;9.00;2.20;;;2.90;99.90;;;;;;5007619;28;20818;-76
2023/03/27 01:37:29;;;;;;;8.80;1.85;;;3.00;99.90;;;;;;4985224;28;20440;-78
2023/03/27 01:40:11;;;;;;;14.15;2.20;;;3.00;99.90;;;;;;5010768;28;20421;-79
2023/03/27 01:42:51;;;;;;;9.40;1.80;;;3.00;99.90;;;;;;5010185;28;20444;-79
2023/03/27 01:45:25;;;;;;;9.32;1.60;;;2.90;99.90;;;;;;5003401;28;20420;-78
2023/03/27 01:47:59;;;;;;;9.60;2.27;;;3.00;99.90;;;;;;4989927;28;20515;-80
2023/03/27 01:50:46;;;;;;;12.70;2.47;;;3.00;99.90;;;;;;5001457;28;20460;-78
2023/03/27 01:53:21;;;;;;;9.48;2.08;;;3.00;99.90;;;;;;5008112;28;20439;-78
2023/03/27 01:55:57;;;;;;;10.02;2.30;;;3.00;99.90;;;;;;5010813;28;20441;-79
2023/03/27 01:58:32;;;;;;;10.75;1.77;;;3.00;99.90;;;;;;5011794;28;20423;-80
2023/03/27 02:01:00;;;;;;;11.18;2.22;;;3.10;99.90;;;;;;5003949;28;20428;-77
2023/03/27 02:03:44;;;;;;;7.37;1.37;;;3.00;99.90;;;;;;5009203;28;20467;-78
2023/03/27 02:06:15;;;;;;;15.43;2.83;;;3.00;99.90;;;;;;5009516;28;20486;-76
2023/03/27 02:08:59;;;;;;;10.48;1.98;;;3.00;99.90;;;;;;5010244;28;20484;-80
2023/03/27 02:11:29;;;;;;;11.20;2.10;;;2.90;99.90;;;;;;5010860;28;20432;-79
2023/03/27 02:14:19;;;;;;;10.00;1.90;;;2.90;99.90;;;;;;5009972;28;20522;-79
2023/03/27 02:16:51;;;;;;;10.77;1.50;;;2.80;99.90;;;;;;5008568;28;20439;-77
2023/03/27 02:19:25;;;;;;;7.93;2.15;;;2.90;99.90;;;;;;5002412;28;20432;-77
2023/03/27 02:21:51;;;;;;;10.45;2.40;;;2.80;99.90;;;;;;5008550;28;20514;-75
2023/03/27 02:24:17;;;;;;;9.70;1.53;;;2.60;99.90;;;;;;5009257;28;20456;-80
2023/03/27 02:26:43;;;;;;;8.55;2.05;;;2.60;99.90;;;;;;5001495;28;20437;-77
2023/03/27 02:29:24;;;;;;;9.07;2.08;;;2.60;99.90;;;;;;5002290;28;20795;-80
2023/03/27 02:32:02;;;;;;;9.23;2.00;;;2.60;99.90;;;;;;5011871;28;20446;-79
2023/03/27 02:34:27;;;;;;;6.72;1.42;;;2.70;99.90;;;;;;5010334;28;20437;-78
2023/03/27 02:37:03;;;;;;;10.90;1.88;;;2.70;99.90;;;;;;4983238;28;20783;-77
2023/03/27 02:39:50;;;;;;;5.50;1.20;;;2.70;99.90;;;;;;4992319;28;20417;-80
2023/03/27 02:42:26;;;;;;;6.63;1.58;;;2.70;99.90;;;;;;5009424;28;20431;-81
2023/03/27 02:44:59;;;;;;;12.30;2.60;;;2.70;99.90;;;;;;5004772;28;20505;-80
2023/03/27 02:47:33;;;;;;;6.45;1.40;;;2.70;99.90;;;;;;5002983;28;20863;-78
2023/03/27 02:50:15;;;;;;;7.63;2.30;;;2.70;99.90;;;;;;5007086;28;20911;-79
2023/03/27 02:52:50;;;;;;;7.40;0.95;;;2.80;99.90;;;;;;4990466;28;20490;-78
2023/03/27 02:55:20;;;;;;;9.68;1.60;;;2.90;99.90;;;;;;5007826;28;20938;-78
2023/03/27 02:57:50;;;;;;;7.75;1.40;;;3.00;99.90;;;;;;5006786;28;20432;-80
2023/03/27 03:00:19;;;;;;;8.40;1.40;;;2.90;99.90;;;;;;5007802;28;20432;-77
2023/03/27 03:02:47;;;;;;;8.60;2.05;;;3.00;99.90;;;;;;5006842;28;20926;-82
2023/03/27 03:05:19;;;;;;;9.87;2.50;;;2.90;99.90;;;;;;5009222;28;20412;-81
2023/03/27 03:07:46;;;;;;;8.40;1.67;;;2.90;99.90;;;;;;5006369;28;20507;-79
2023/03/27 03:10:12;;;;;;;8.85;1.70;;;2.90;99.90;;;;;;5009014;28;20428;-81
2023/03/27 03:12:38;;;;;;;9.93;1.90;;;2.90;99.90;;;;;;5008729;28;20424;-79
2023/03/27 03:15:06;;;;;;;10.67;1.87;;;2.80;99.90;;;;;;5007523;28;20436;-79
2023/03/27 03:17:32;;;;;;;10.30;1.88;;;2.70;99.90;;;;;;5007815;28;20938;-75
2023/03/27 03:19:58;;;;;;;6.70;1.60;;;2.70;99.90;;;;;;5008595;28;20899;-79
2023/03/27 03:22:24;;;;;;;6.47;1.30;;;2.60;99.90;;;;;;5008516;28;20475;-80
2023/03/27 03:24:50;;;;;;;6.22;1.08;;;2.50;99.90;;;;;;5007337;28;20424;-76
2023/03/27 03:27:19;;;;;;;7.43;1.40;;;2.40;99.90;;;;;;5007251;28;20428;-80
2023/03/27 03:29:46;;;;;;;5.27;1.30;;;2.40;99.90;;;;;;5008837;28;20588;-75
2023/03/27 03:32:12;;;;;;;9.27;1.85;;;2.50;99.90;;;;;;5008898;28;20457;-77
2023/03/27 03:34:40;;;;;;;7.63;1.90;;;2.40;99.90;;;;;;5005956;28;20521;-77
2023/03/27 03:37:09;;;;;;;6.72;1.50;;;2.50;99.90;;;;;;5007117;28;20440;-76
2023/03/27 03:39:35;;;;;;;7.57;1.80;;;2.50;99.90;;;;;;5007856;28;20452;-78
2023/03/27 03:42:01;;;;;;;7.35;1.73;;;2.50;99.90;;;;;;5008074;28;20432;-78
2023/03/27 03:44:27;;;;;;;10.63;2.70;;;2.50;99.90;;;;;;5007013;28;20463;-78
2023/03/27 03:46:53;;;;;;;7.03;1.95;;;2.50;99.90;;;;;;5008673;28;20456;-79
2023/03/27 03:49:18;;;;;;;11.68;1.70;;;2.40;99.90;;;;;;5007646;28;20486;-79
2023/03/27 03:51:44;;;;;;;7.22;1.50;;;2.50;99.90;;;;;;5008000;28;21243;-78
2023/03/27 03:54:10;;;;;;;8.82;1.70;;;2.50;99.90;;;;;;5006278;28;20433;-75
2023/03/27 03:56:40;;;;;;;6.28;1.30;;;2.30;99.90;;;;;;5007421;28;20838;-78
2023/03/27 03:59:10;;;;;;;11.67;2.50;;;2.40;99.90;;;;;;5007701;28;20548;-76
2023/03/27 04:01:36;;;;;;;6.25;1.70;;;2.40;99.90;;;;;;5008079;28;20424;-79
2023/03/27 04:04:02;;;;;;;7.78;1.83;;;2.40;99.90;;;;;;5006391;28;20813;-80
2023/03/27 04:06:29;;;;;;;16.60;2.35;;;2.50;99.90;;;;;;5005579;28;20551;-79
2023/03/27 04:08:56;;;;;;;9.20;2.50;;;2.50;99.90;;;;;;5006617;28;20799;-78
2023/03/27 04:11:21;;;;;;;13.20;2.72;;;2.50;99.90;;;;;;5007092;28;20519;-80
2023/03/27 04:13:48;;;;;;;9.70;1.67;;;2.40;99.90;;;;;;5007902;28;20492;-79
2023/03/27 04:16:14;;;;;;;10.27;2.38;;;2.30;99.90;;;;;;4989493;28;20471;-80
2023/03/27 04:18:41;;;;;;;10.52;2.45;;;2.40;99.90;;;;;;5008507;28;20458;-78
2023/03/27 04:21:14;;;;;;;9.32;2.00;;;2.40;99.90;;;;;;5006991;28;21315;-75
2023/03/27 04:23:44;;;;;;;6.97;2.30;;;2.40;99.90;;;;;;5006622;28;20867;-78
2023/03/27 04:26:11;;;;;;;8.55;1.70;;;2.40;99.90;;;;;;5006656;28;20989;-80
2023/03/27 04:28:37;;;;;;;12.15;2.30;;;2.40;99.90;;;;;;5007156;28;20431;-80
2023/03/27 04:31:09;;;;;;;10.80;2.60;;;2.50;99.90;;;;;;5006651;28;20800;-77
2023/03/27 04:33:39;;;;;;;12.88;3.10;;;2.40;99.90;;;;;;5005471;28;20460;-80
2023/03/27 04:36:07;;;;;;;9.35;2.28;;;2.40;99.90;;;;;;5006613;28;20478;-79
2023/03/27 04:38:37;;;;;;;7.80;1.90;;;2.60;99.90;;;;;;5008404;28;20482;-76
2023/03/27 04:41:03;;;;;;;10.23;2.28;;;2.60;99.90;;;;;;4994268;28;20427;-78
2023/03/27 04:43:29;;;;;;;9.68;1.90;;;2.60;99.90;;;;;;5006296;28;20538;-79
2023/03/27 04:45:55;;;;;;;8.27;1.83;;;2.70;99.90;;;;;;5007840;28;20435;-78
2023/03/27 04:48:21;;;;;;;9.15;2.33;;;2.70;99.90;;;;;;5006324;28;20883;-76
2023/03/27 04:50:48;;;;;;;13.35;2.70;;;2.60;99.90;;;;;;5008089;28;20523;-76
2023/03/27 04:53:15;;;;;;;14.75;3.28;;;2.70;99.90;;;;;;5007071;28;21203;-78
2023/03/27 04:55:42;;;;;;;13.07;1.77;;;2.70;99.90;;;;;;5008625;28;20437;-76
2023/03/27 04:58:08;;;;;;;9.63;2.80;;;2.70;99.90;;;;;;5007744;28;20424;-76
2023/03/27 05:00:33;;;;;;;13.38;2.70;;;2.70;99.90;;;;;;5006900;28;20439;-77
2023/03/27 05:03:02;;;;;;;10.63;1.90;;;2.60;99.90;;;;;;5005527;28;20421;-78
2023/03/27 05:05:28;;;;;;;14.18;2.50;;;2.70;99.90;;;;;;5010728;28;20444;-76
2023/03/27 05:07:54;;;;;;;16.38;2.72;;;2.70;99.90;;;;;;5011952;28;20412;-77
2023/03/27 05:10:20;;;;;;;11.77;2.30;;;2.60;99.90;;;;;;5012748;28;20436;-76
2023/03/27 05:12:47;;;;;;;15.02;3.08;;;2.70;99.90;;;;;;4993441;28;20432;-78
2023/03/27 05:15:14;;;;;;;9.98;2.97;;;2.60;99.90;;;;;;5012221;28;20424;-77
2023/03/27 05:17:42;;;;;;;12.45;2.17;;;2.60;99.90;;;;;;5010843;28;20918;-77
2023/03/27 05:20:13;;;;;;;11.95;2.70;;;2.70;99.90;;;;;;5010851;28;20485;-77
2023/03/27 05:22:40;;;;;;;9.07;2.08;;;2.70;99.90;;;;;;5008741;28;20503;-79
2023/03/27 05:25:07;;;;;;;9.80;2.67;;;2.70;99.90;;;;;;4995686;28;22267;-78
2023/03/27 05:27:33;;;;;;;17.00;2.73;;;2.80;99.90;;;;;;5011470;28;20425;-78
2023/03/27 05:30:00;;;;;;;10.25;2.03;;;2.70;99.90;;;;;;5008871;28;20436;-79
2023/03/27 05:32:25;;;;;;;10.98;1.45;;;2.80;99.90;;;;;;5003347;28;20455;-78
2023/03/27 05:34:53;;;;;;;12.15;2.88;;;2.70;99.90;;;;;;5010839;28;20923;-77
2023/03/27 05:37:20;;;;;;;7.43;1.67;;;2.70;99.90;;;;;;5010648;28;20472;-77
2023/03/27 05:39:46;;;;;;;12.55;2.50;;;2.70;99.90;;;;;;4993753;28;20432;-76
2023/03/27 05:42:13;;;;;;;7.07;1.73;;;2.80;99.90;;;;;;5010628;28;20490;-78
2023/03/27 05:44:39;;;;;;;7.03;1.15;;;2.80;99.90;;;;;;5014433;28;20421;-78
2023/03/27 05:47:05;;;;;;;7.13;1.60;;;2.70;99.90;;;;;;5015331;28;20428;-77
2023/03/27 05:49:31;;;;;;;7.45;1.80;;;2.70;99.90;;;;;;5012697;28;20431;-77
2023/03/27 05:51:57;;;;;;;8.90;1.92;;;2.80;99.90;;;;;;5011623;28;20452;-77
2023/03/27 05:54:23;;;;;;;10.10;2.03;;;2.90;99.90;;;;;;5010995;28;20433;-77
2023/03/27 05:56:49;;;;;;;11.68;2.05;;;3.00;99.90;;;;;;5010589;28;20441;-77
2023/03/27 05:59:16;;;;;;;8.05;1.25;;;2.90;99.90;;;;;;5009742;28;20432;-76
2023/03/27 06:01:41;;;;;;;7.03;1.48;;;2.60;99.90;;;;;;5023693;28;20544;-78
2023/03/27 06:04:07;;;;;;;8.60;2.33;;;2.80;99.90;;;;;;4991880;28;20440;-77
2023/03/27 06:06:34;;;;;;;11.15;2.67;;;2.90;99.90;;;;;;5011347;28;20420;-78
2023/03/27 06:09:00;;;;;;;11.45;2.53;;;2.90;99.90;;;;;;5008446;28;20409;-77
2023/03/27 06:11:26;;;;;;;8.00;1.42;;;3.10;99.90;;;;;;5010091;28;20431;-79
2023/03/27 06:13:52;;;;;;;5.33;1.70;;;3.30;99.90;;;;;;5008577;28;20515;-77
2023/03/27 06:16:19;;;;;;;9.68;1.85;;;3.30;99.90;;;;;;5008389;28;20428;-74
2023/03/27 06:18:46;;;;;;;7.65;1.63;;;3.10;99.90;;;;;;5008690;28;20425;-79
2023/03/27 06:21:12;;;;;;;7.67;1.40;;;3.40;99.90;;;;;;4996424;28;20436;-76
2023/03/27 06:23:38;;;;;;;7.57;2.13;;;3.30;99.90;;;;;;5007511;28;20838;-77
2023/03/27 06:26:04;;;;;;;9.45;1.30;;;3.20;99.90;;;;;;5000494;28;20793;-75
2023/03/27 06:28:30;;;;;;;8.43;1.40;;;3.20;99.90;;;;;;4992839;28;20428;-77
2023/03/27 06:30:56;;;;;;;13.17;2.00;;;3.20;99.90;;;;;;5007742;28;20511;-76
2023/03/27 06:33:24;;;;;;;12.30;3.00;;;3.20;99.90;;;;;;5008587;28;20570;-79
2023/03/27 06:35:51;;;;;;;7.20;1.50;;;3.30;99.90;;;;;;5007301;28;20511;-76
2023/03/27 06:38:17;;;;;;;8.65;1.40;;;3.30;99.90;;;;;;5007821;28;20452;-80
2023/03/27 06:40:43;;;;;;;8.13;2.13;;;3.50;99.90;;;;;;5008336;28;20922;-78
2023/03/27 06:43:10;;;;;;;10.88;1.60;;;3.70;99.90;;;;;;5009259;28;20432;-78
2023/03/27 06:45:42;;;;;;;8.75;1.73;;;4.00;99.90;;;;;;4992337;28;20432;-78
2023/03/27 06:48:09;;;;;;;17.55;2.45;;;4.00;99.90;;;;;;5009182;28;20413;-78
2023/03/27 06:50:35;;;;;;;9.20;2.17;;;3.90;99.90;;;;;;5010349;28;20432;-76
2023/03/27 06:53:01;;;;;;;9.48;2.10;;;3.90;99.90;;;;;;4975448;28;20932;-77
2023/03/27 06:55:30;;;;;;;10.57;1.70;;;4.10;99.90;;;;;;5006808;28;20536;-77
2023/03/27 06:57:57;;;;;;;11.15;1.83;;;4.00;99.90;;;;;;5009141;28;20436;-79
2023/03/27 07:00:27;;;;;;;7.50;1.87;;;4.10;99.90;;;;;;5006858;28;20575;-74
2023/03/27 07:03:02;;;;;;;13.50;2.53;;;4.10;99.90;;;;;;5007028;28;20441;-77
2023/03/27 07:05:30;;;;;;;8.23;1.80;;;4.20;99.90;;;;;;5005614;28;20468;-78
2023/03/27 07:07:57;;;;;;;8.65;1.73;;;4.30;99.90;;;;;;5009903;28;20423;-78
2023/03/27 07:10:24;;;;;;;9.35;1.42;;;4.40;99.90;;;;;;5008193;28;20433;-74
2023/03/27 07:12:51;;;;;;;13.13;1.60;;;4.40;99.90;;;;;;5009869;28;20551;-75
2023/03/27 07:15:18;;;;;;;8.53;1.30;;;4.70;99.90;;;;;;4990866;28;20443;-78
2023/03/27 07:17:50;;;;;;;8.65;1.63;;;4.80;99.90;;;;;;5009042;28;20417;-76
2023/03/27 07:20:16;;;;;;;7.87;2.13;;;5.00;99.90;;;;;;5007173;28;20507;-76
2023/03/27 07:22:42;;;;;;;11.90;2.05;;;5.30;99.90;;;;;;4989025;28;20563;-74
2023/03/27 07:25:10;;;;;;;15.10;2.50;;;5.40;99.90;;;;;;5007148;28;20511;-75
2023/03/27 07:27:36;;;;;;;6.60;1.50;;;4.80;99.90;;;;;;5006260;28;20456;-75
2023/03/27 07:30:02;;;;;;;5.82;1.08;;;4.40;99.90;;;;;;5009896;28;20419;-75
2023/03/27 07:32:28;;;;;;;9.65;2.40;;;4.10;99.90;;;;;;5003346;28;20437;-72
2023/03/27 07:34:57;;;;;;;6.37;1.47;;;4.00;99.90;;;;;;5005759;28;20437;-75
2023/03/27 07:37:23;;;;;;;9.93;2.10;;;4.10;99.90;;;;;;5006089;28;20516;-78
2023/03/27 07:39:49;;;;;;;7.00;1.55;;;4.20;99.90;;;;;;5007222;28;20475;-77
2023/03/27 07:42:14;;;;;;;8.63;1.55;;;4.10;99.90;;;;;;5006117;28;20417;-78
2023/03/27 07:44:40;;;;;;;8.65;2.17;;;4.10;99.90;;;;;;5008961;28;20791;-75
2023/03/27 07:47:06;;;;;;;7.05;1.25;;;3.80;99.90;;;;;;5007256;28;20760;-77
2023/03/27 07:49:32;;;;;;;5.72;1.30;;;3.80;99.90;;;;;;5008692;28;20429;-77
2023/03/27 07:51:59;;;;;;;6.93;1.10;;;3.80;99.90;;;;;;5008291;28;20424;-77
2023/03/27 07:54:25;;;;;;;10.20;2.53;;;3.70;99.90;;;;;;5006033;28;20517;-77
2023/03/27 07:56:52;;;;;;;9.85;2.08;;;3.60;99.90;;;;;;4989932;28;20430;-78
2023/03/27 07:59:20;;;;;;;10.10;2.88;;;3.50;99.90;;;;;;5005559;28;20424;-78
2023/03/27 08:01:49;;;;;;;11.68;2.63;;;3.40;99.90;;;;;;5008114;28;20436;-79
2023/03/27 08:04:18;;;;;;;6.95;1.70;;;3.40;99.90;;;;;;5009370;28;20775;-80
2023/03/27 08:06:44;;;;;;;13.93;2.42;;;3.40;99.90;;;;;;5006325;28;20430;-78
2023/03/27 08:09:09;;;;;;;9.88;1.92;;;3.50;99.90;;;;;;5009817;28;20421;-79
2023/03/27 08:11:40;;;;;;;6.38;1.80;;;3.70;99.90;;;;;;5007248;28;20436;-78
2023/03/27 08:14:08;;;;;;;7.22;1.83;;;3.90;99.90;;;;;;5008376;28;20462;-80
2023/03/27 08:16:34;;;;;;;7.57;1.33;;;4.20;99.90;;;;;;5009313;28;20437;-78
2023/03/27 08:19:02;;;;;;;6.07;2.08;;;4.40;99.90;;;;;;5010034;28;20475;-78
2023/03/27 08:21:30;;;;;;;10.20;2.78;;;4.60;99.90;;;;;;4993854;28;20958;-80
2023/03/27 08:23:57;;;;;;;6.50;1.17;;;4.90;99.90;;;;;;4997897;28;20421;-75
2023/03/27 08:26:23;;;;;;;9.65;2.60;;;5.20;99.90;;;;;;5013707;28;20437;-80
2023/03/27 08:28:52;;;;;;;8.57;1.75;;;5.50;99.90;;;;;;5014312;28;20788;-78
2023/03/27 08:31:19;;;;;;;8.15;1.40;;;5.60;99.90;;;;;;5009751;28;20516;-79
2023/03/27 08:33:45;;;;;;;4.57;0.90;;;4.10;99.90;;;;;;5005962;28;20429;-80
2023/03/27 08:36:13;;;;;;;2.42;0.47;;;3.70;99.90;;;;;;5008444;28;20432;-79
2023/03/27 08:38:40;;;;;;;2.70;0.77;;;3.20;99.90;;;;;;5006219;28;20787;-82
2023/03/27 08:41:06;;;;;;;1.33;0.50;;;3.20;99.90;;;;;;5011239;28;20420;-82
2023/03/27 08:43:42;;;;;;;1.23;0.40;;;3.10;99.90;;;;;;5025833;28;20421;-81
2023/03/27 08:47:04;;;;;;;1.45;0.40;;;3.20;99.90;;;;;;4998801;28;20409;-81
2023/03/27 08:49:38;;;;;;;2.35;0.70;;;3.30;99.90;;;;;;4993716;28;20852;-80
2023/03/27 08:52:13;;;;;;;3.13;0.60;;;3.50;99.90;;;;;;5012134;28;20419;-79
2023/03/27 08:54:39;;;;;;;1.40;0.55;;;3.80;99.90;;;;;;5012513;28;20473;-80
2023/03/27 08:57:20;;;;;;;1.98;0.65;;;4.00;99.90;;;;;;5032986;28;20434;-80
2023/03/27 08:59:46;;;;;;;3.42;0.50;;;4.20;99.90;;;;;;5021554;28;20605;-79
2023/03/27 09:02:44;;;;;;;1.80;1.00;;;4.40;99.90;;;;;;5030838;28;20461;-78
2023/03/27 09:05:39;;;;;;;2.92;0.50;;;4.60;99.90;;;;;;5011774;28;20479;-79
2023/03/27 09:08:22;;;;;;;5.57;1.60;;;4.70;99.90;;;;;;5020642;28;20451;-81
2023/03/27 09:10:49;;;;;;;3.65;0.73;;;5.00;99.90;;;;;;5026517;28;20424;-79
2023/03/27 09:13:20;;;;;;;4.95;1.02;;;5.10;99.90;;;;;;5015158;28;20406;-80
2023/03/27 09:16:03;;;;;;;6.97;1.33;;;5.30;99.90;;;;;;5006926;28;20432;-79
2023/03/27 09:18:38;;;;;;;7.55;1.75;;;5.30;99.90;;;;;;5008228;28;20965;-81
2023/03/27 09:21:21;;;;;;;9.45;1.40;;;5.40;99.90;;;;;;5013071;28;20420;-78
2023/03/27 09:23:47;;;;;;;5.85;1.25;;;5.50;99.90;;;;;;5009085;28;20518;-78
2023/03/27 09:26:22;;;;;;;4.82;1.35;;;5.70;99.90;;;;;;5014689;28;21223;-76
2023/03/27 09:28:56;;;;;;;12.18;2.90;;;6.00;99.90;;;;;;5028284;28;20985;-77
2023/03/27 09:31:30;;;;;;;8.63;2.03;;;6.30;99.90;;;;;;5025471;28;20418;-77
2023/03/27 09:33:59;;;;;;;4.68;0.95;;;6.30;99.90;;;;;;5009841;28;20530;-75
2023/03/27 09:36:25;;;;;;;9.75;1.40;;;6.50;99.90;;;;;;5020511;28;20426;-77
2023/03/27 09:38:57;;;;;;;6.73;1.30;;;6.20;99.90;;;;;;5008432;28;20475;-77
2023/03/27 09:41:30;;;;;;;4.70;1.20;;;6.40;99.90;;;;;;5021739;28;20502;-79
2023/03/27 09:44:24;;;;;;;7.90;1.20;;;6.20;99.90;;;;;;5014099;28;20421;-74
2023/03/27 09:47:03;;;;;;;6.10;0.88;;;6.20;99.90;;;;;;5005576;28;20436;-77
2023/03/27 09:49:28;;;;;;;8.10;1.67;;;6.20;99.90;;;;;;5022629;28;20411;-77
2023/03/27 09:51:57;;;;;;;5.83;1.27;;;6.30;99.90;;;;;;5014151;28;20546;-77
2023/03/27 09:54:27;;;;;;;10.18;1.55;;;6.20;99.90;;;;;;5026026;28;20412;-75
2023/03/27 09:57:09;;;;;;;11.43;2.03;;;6.10;99.90;;;;;;5013273;28;20497;-74
2023/03/27 09:59:39;;;;;;;7.15;1.73;;;6.30;99.90;;;;;;5014833;28;20421;-75
2023/03/27 10:02:22;;;;;;;8.88;1.67;;;6.40;99.90;;;;;;5012410;28;20432;-75
2023/03/27 10:05:11;;;;;;;7.70;1.17;;;6.40;99.90;;;;;;5007551;28;20425;-75
2023/03/27 10:07:38;;;;;;;8.55;1.40;;;6.50;99.90;;;;;;5009132;28;20464;-75
2023/03/27 10:10:16;;;;;;;7.47;1.33;;;6.60;99.90;;;;;;5006214;28;20425;-76
2023/03/27 10:12:45;;;;;;;6.85;1.52;;;6.80;99.90;;;;;;5026827;28;20466;-75
2023/03/27 10:15:38;;;;;;;10.50;1.73;;;6.80;99.90;;;;;;5014050;28;20503;-74
2023/03/27 10:18:21;;;;;;;6.70;1.38;;;6.70;99.90;;;;;;5007264;28;20516;-75
2023/03/27 10:20:52;;;;;;;8.10;1.75;;;6.70;99.90;;;;;;4990786;28;20406;-74
2023/03/27 10:23:28;;;;;;;7.03;1.80;;;7.00;99.90;;;;;;4990238;28;20418;-74
2023/03/27 10:26:00;;;;;;;11.98;1.80;;;7.30;99.90;;;;;;4991660;28;20417;-74
2023/03/27 10:28:33;;;;;;;8.63;1.60;;;7.40;99.90;;;;;;5009155;28;20756;-74
2023/03/27 10:31:02;;;;;;;8.80;1.20;;;7.30;99.90;;;;;;4992658;28;20413;-75
2023/03/27 10:33:34;;;;;;;8.05;1.90;;;7.00;99.90;;;;;;5008083;28;20460;-75
2023/03/27 10:36:00;;;;;;;3.92;1.00;;;7.00;99.90;;;;;;5008703;28;20435;-74
2023/03/27 10:38:51;;;;;;;4.80;1.10;;;6.90;99.90;;;;;;5008881;28;20409;-76
2023/03/27 10:41:18;;;;;;;6.93;1.25;;;7.30;99.90;;;;;;5008644;28;20413;-75
2023/03/27 10:43:45;;;;;;;5.80;1.48;;;7.30;99.90;;;;;;5009443;28;20438;-76
2023/03/27 10:46:15;;;;;;;5.20;1.05;;;7.60;99.90;;;;;;5008363;28;20435;-76
2023/03/27 10:49:09;;;;;;;5.45;1.05;;;7.90;99.90;;;;;;5009056;28;20479;-76
2023/03/27 10:51:59;;;;;;;3.17;0.90;;;8.00;99.90;;;;;;5007055;28;20508;-76
2023/03/27 10:54:53;;;;;;;4.53;1.08;;;7.80;99.90;;;;;;4992737;28;20836;-75
2023/03/27 10:57:23;;;;;;;2.35;0.82;;;6.60;99.90;;;;;;5003605;28;20450;-75
2023/03/27 11:00:09;;;;;;;3.90;0.60;;;5.90;99.90;;;;;;5019435;28;20419;-75
2023/03/27 11:02:53;;;;;;;2.38;0.40;;;5.50;99.90;;;;;;5008491;28;20421;-75
2023/03/27 11:05:24;;;;;;;1.77;0.40;;;5.30;99.90;;;;;;4989706;28;20422;-75
2023/03/27 11:08:11;;;;;;;1.25;0.30;;;5.60;99.90;;;;;;5007210;28;20432;-74
2023/03/27 11:10:44;;;;;;;2.20;0.50;;;5.90;99.90;;;;;;5025655;28;20925;-74
2023/03/27 11:13:21;;;;;;;4.40;0.77;;;6.40;99.90;;;;;;5006496;28;20483;-74
2023/03/27 11:15:50;;;;;;;3.58;0.70;;;6.70;99.90;;;;;;5003200;28;20482;-75
2023/03/27 11:18:31;;;;;;;5.90;0.85;;;6.70;99.90;;;;;;5008227;28;20428;-75
2023/03/27 11:21:37;;;;;;;5.97;1.85;;;7.20;99.90;;;;;;5023845;28;20455;-75
2023/03/27 11:24:08;;;;;;;4.17;1.10;;;7.50;99.90;;;;;;4986107;28;20463;-74
2023/03/27 11:27:03;;;;;;;6.15;0.73;;;7.70;99.90;;;;;;4998894;28;20420;-75
2023/03/27 11:29:34;;;;;;;3.70;0.93;;;7.50;99.90;;;;;;5001820;28;20434;-74
2023/03/27 11:32:39;;;;;;;6.97;1.77;;;7.40;99.90;;;;;;5004526;28;21000;-74
2023/03/27 11:35:16;;;;;;;8.27;1.75;;;7.80;99.90;;;;;;4991898;28;20978;-74
2023/03/27 11:37:45;;;;;;;8.30;1.25;;;8.10;99.90;;;;;;5007704;28;20443;-74
2023/03/27 11:40:19;;;;;;;18.55;3.13;;;7.40;99.90;;;;;;5005474;28;20432;-75
2023/03/27 11:42:45;;;;;;;8.43;2.00;;;6.90;99.90;;;;;;5007994;28;20443;-75
2023/03/27 11:45:13;;;;;;;7.72;1.80;;;6.60;99.90;;;;;;5008868;28;20499;-75
2023/03/27 11:48:11;;;;;;;12.55;2.50;;;6.50;99.90;;;;;;4995739;28;20456;-74
2023/03/27 11:50:53;;;;;;;6.40;1.77;;;7.10;99.90;;;;;;4991426;28;20512;-73
2023/03/27 11:53:39;;;;;;;9.40;1.35;;;7.30;99.90;;;;;;5005232;28;20523;-74
2023/03/27 11:56:29;;;;;;;9.68;2.17;;;7.30;99.90;;;;;;5001229;28;20440;-76
2023/03/27 11:59:07;;;;;;;17.88;1.85;;;7.60;99.90;;;;;;5008226;28;20432;-75
2023/03/27 12:01:36;;;;;;;10.15;1.13;;;7.50;99.90;;;;;;5007460;28;20439;-76
2023/03/27 12:04:14;;;;;;;5.93;1.25;;;7.30;99.90;;;;;;5004889;28;20435;-73
2023/03/27 12:07:01;;;;;;;10.20;1.95;;;7.00;99.90;;;;;;5007490;28;20467;-74
2023/03/27 12:09:47;;;;;;;10.77;1.58;;;7.10;99.90;;;;;;5002809;28;20435;-74
2023/03/27 12:12:12;;;;;;;5.60;1.02;;;7.40;99.90;;;;;;5008394;28;20409;-73
2023/03/27 12:15:05;;;;;;;5.60;0.80;;;7.60;99.90;;;;;;5006800;28;20838;-74
2023/03/27 12:17:59;;;;;;;8.80;1.00;;;7.70;99.90;;;;;;5007887;28;21165;-73
2023/03/27 12:20:49;;;;;;;18.73;2.28;;;7.80;99.90;;;;;;4999126;28;20432;-74
2023/03/27 12:23:30;;;;;;;6.10;1.53;;;7.80;99.90;;;;;;4988984;28;20441;-75
2023/03/27 12:25:56;;;;;;;7.45;1.15;;;8.00;99.90;;;;;;4990925;28;20540;-74
2023/03/27 12:28:27;;;;;;;7.70;1.10;;;8.00;99.90;;;;;;5006117;28;20463;-75
2023/03/27 12:31:16;;;;;;;8.70;2.60;;;7.60;99.90;;;;;;5004282;28;20426;-75
2023/03/27 12:34:03;;;;;;;6.67;1.60;;;7.40;99.90;;;;;;5000827;28;20481;-75
2023/03/27 12:36:37;;;;;;;8.38;2.45;;;7.10;99.90;;;;;;4988234;28;20445;-74
2023/03/27 12:39:43;;;;;;;11.82;1.88;;;7.80;99.90;;;;;;4992507;28;20448;-75
2023/03/27 12:42:12;;;;;;;9.10;1.58;;;7.80;99.90;;;;;;4998173;28;20421;-74
2023/03/27 12:45:04;;;;;;;8.15;2.22;;;7.60;99.90;;;;;;5001620;28;20993;-74
2023/03/27 12:47:30;;;;;;;8.85;1.70;;;7.00;99.90;;;;;;4999892;28;20457;-76
2023/03/27 12:49:58;;;;;;;7.77;1.63;;;6.40;99.90;;;;;;5000699;28;20429;-74
2023/03/27 12:52:27;;;;;;;5.70;1.00;;;5.90;99.90;;;;;;4998254;28;20436;-75
2023/03/27 12:55:24;;;;;;;7.10;1.73;;;5.60;99.90;;;;;;5006967;28;20438;-74
2023/03/27 12:57:50;;;;;;;9.00;1.73;;;5.30;99.90;;;;;;5002703;28;20431;-74
2023/03/27 13:00:22;;;;;;;10.50;2.63;;;5.30;99.90;;;;;;5023199;28;20414;-75
2023/03/27 13:03:16;;;;;;;12.90;2.13;;;5.40;99.90;;;;;;5009608;28;20473;-75
2023/03/27 13:06:07;;;;;;;8.15;2.15;;;5.80;99.90;;;;;;5020362;28;20777;-75
2023/03/27 13:08:51;;;;;;;10.85;1.95;;;6.00;99.90;;;;;;5005691;28;20432;-76
2023/03/27 13:11:42;;;;;;;10.45;2.17;;;6.20;99.90;;;;;;5006265;28;20432;-75
2023/03/27 13:14:31;;;;;;;12.43;1.92;;;6.40;99.90;;;;;;5007490;28;20437;-76
2023/03/27 13:17:17;;;;;;;12.30;2.23;;;6.80;99.90;;;;;;4996686;28;20427;-76
2023/03/27 13:20:06;;;;;;;8.77;1.40;;;6.80;99.90;;;;;;4984682;28;20420;-75